sensor_id;sensor_type;location;lat;lon;timestamp;pressure;altitude;pressure_sealevel;temperature;humidity
34297;BME280;20564;42.902;25.336;2023-12-28T00:02:25;98364.19;;;-0.22;100.00
34297;BME280;20564;42.902;25.336;2023-12-28T00:04:52;98362.50;;;-0.23;100.00
34297;BME280;20564;42.902;25.336;2023-12-28T00:07:18;98355.81;;;-0.31;100.00
34297;BME280;20564;42.902;25.336;2023-12-28T00:09:45;98361.81;;;-0.30;100.00
34297;BME280;20564;42.902;25.336;2023-12-28T00:12:12;98369.63;;;-0.32;100.00
34297;BME280;20564;42.902;25.336;2023-12-28T00:14:39;98367.19;;;-0.36;100.00
34297;BME280;20564;42.902;25.336;2023-12-28T00:17:06;98362.84;;;-0.36;100.00
34297;BME280;20564;42.902;25.336;2023-12-28T00:19:33;98363.03;;;-0.42;100.00
34297;BME280;20564;42.902;25.336;2023-12-28T00:22:00;98359.53;;;-0.41;100.00
34297;BME280;20564;42.902;25.336;2023-12-28T00:24:27;98363.09;;;-0.45;100.00
34297;BME280;20564;42.902;25.336;2023-12-28T00:26:54;98371.50;;;-0.37;100.00
34297;BME280;20564;42.902;25.336;2023-12-28T00:29:21;98371.75;;;-0.46;100.00
34297;BME280;20564;42.902;25.336;2023-12-28T00:31:48;98382.16;;;-0.47;100.00
34297;BME280;20564;42.902;25.336;2023-12-28T00:34:15;98371.00;;;-0.50;100.00
34297;BME280;20564;42.902;25.336;2023-12-28T00:36:44;98378.84;;;-0.53;100.00
34297;BME280;20564;42.902;25.336;2023-12-28T00:39:10;98375.25;;;-0.47;100.00
34297;BME280;20564;42.902;25.336;2023-12-28T00:41:38;98380.28;;;-0.42;100.00
34297;BME280;20564;42.902;25.336;2023-12-28T00:44:06;98368.63;;;-0.57;100.00
34297;BME280;20564;42.902;25.336;2023-12-28T00:46:36;98367.03;;;-0.61;100.00
34297;BME280;20564;42.902;25.336;2023-12-28T00:49:02;98372.28;;;-0.64;100.00
34297;BME280;20564;42.902;25.336;2023-12-28T00:51:30;98377.59;;;-0.70;100.00
34297;BME280;20564;42.902;25.336;2023-12-28T00:53:56;98382.91;;;-0.75;100.00
34297;BME280;20564;42.902;25.336;2023-12-28T00:56:24;98382.19;;;-0.80;100.00
34297;BME280;20564;42.902;25.336;2023-12-28T00:58:51;98384.81;;;-0.82;100.00
34297;BME280;20564;42.902;25.336;2023-12-28T01:01:18;98390.78;;;-0.80;100.00
34297;BME280;20564;42.902;25.336;2023-12-28T01:03:45;98382.19;;;-0.80;100.00
34297;BME280;20564;42.902;25.336;2023-12-28T01:06:12;98385.56;;;-0.78;100.00
34297;BME280;20564;42.902;25.336;2023-12-28T01:08:39;98382.09;;;-0.77;100.00
34297;BME280;20564;42.902;25.336;2023-12-28T01:11:06;98384.56;;;-0.73;100.00
34297;BME280;20564;42.902;25.336;2023-12-28T01:13:33;98385.34;;;-0.69;100.00
34297;BME280;20564;42.902;25.336;2023-12-28T01:16:00;98369.84;;;-0.70;100.00
34297;BME280;20564;42.902;25.336;2023-12-28T01:18:26;98369.06;;;-0.73;100.00
34297;BME280;20564;42.902;25.336;2023-12-28T01:20:54;98372.63;;;-0.77;100.00
34297;BME280;20564;42.902;25.336;2023-12-28T01:23:21;98373.56;;;-0.81;100.00
34297;BME280;20564;42.902;25.336;2023-12-28T01:25:47;98382.84;;;-0.74;100.00
34297;BME280;20564;42.902;25.336;2023-12-28T01:28:14;98384.81;;;-0.82;100.00
34297;BME280;20564;42.902;25.336;2023-12-28T01:30:43;98387.47;;;-0.85;100.00
34297;BME280;20564;42.902;25.336;2023-12-28T01:33:11;98389.28;;;-0.88;100.00
34297;BME280;20564;42.902;25.336;2023-12-28T01:35:38;98389.47;;;-0.94;100.00
34297;BME280;20564;42.902;25.336;2023-12-28T01:38:05;98383.38;;;-0.93;100.00
34297;BME280;20564;42.902;25.336;2023-12-28T01:40:32;98380.88;;;-0.97;100.00
34297;BME280;20564;42.902;25.336;2023-12-28T01:42:59;98381.72;;;-0.96;100.00
34297;BME280;20564;42.902;25.336;2023-12-28T01:45:26;98379.13;;;-0.96;100.00
34297;BME280;20564;42.902;25.336;2023-12-28T01:47:57;98373.09;;;-0.95;100.00
34297;BME280;20564;42.902;25.336;2023-12-28T01:50:25;98372.22;;;-0.95;100.00
34297;BME280;20564;42.902;25.336;2023-12-28T01:52:54;98381.66;;;-0.93;100.00
34297;BME280;20564;42.902;25.336;2023-12-28T01:55:24;98385.22;;;-0.97;100.00
34297;BME280;20564;42.902;25.336;2023-12-28T01:57:51;98381.22;;;-1.10;100.00
34297;BME280;20564;42.902;25.336;2023-12-28T02:00:21;98373.56;;;-1.13;100.00
34297;BME280;20564;42.902;25.336;2023-12-28T02:02:49;98380.56;;;-1.17;100.00
34297;BME280;20564;42.902;25.336;2023-12-28T02:05:17;98384.84;;;-1.17;100.00
34297;BME280;20564;42.902;25.336;2023-12-28T02:07:44;98383.22;;;-1.20;100.00
34297;BME280;20564;42.902;25.336;2023-12-28T02:10:11;98382.28;;;-1.17;100.00
34297;BME280;20564;42.902;25.336;2023-12-28T02:12:38;98385.69;;;-1.15;100.00
34297;BME280;20564;42.902;25.336;2023-12-28T02:15:06;98386.56;;;-1.16;100.00
34297;BME280;20564;42.902;25.336;2023-12-28T02:17:38;98377.88;;;-1.14;100.00
34297;BME280;20564;42.902;25.336;2023-12-28T02:20:10;98377.88;;;-1.14;100.00
34297;BME280;20564;42.902;25.336;2023-12-28T02:22:38;98375.41;;;-1.18;100.00
34297;BME280;20564;42.902;25.336;2023-12-28T02:25:08;98371.94;;;-1.17;100.00
34297;BME280;20564;42.902;25.336;2023-12-28T02:27:41;98363.41;;;-1.19;100.00
34297;BME280;20564;42.902;25.336;2023-12-28T02:30:10;98365.22;;;-1.25;100.00
34297;BME280;20564;42.902;25.336;2023-12-28T02:35:34;98362.63;;;-1.25;100.00
34297;BME280;20564;42.902;25.336;2023-12-28T02:38:06;98353.13;;;-1.23;100.00
34297;BME280;20564;42.902;25.336;2023-12-28T02:40:40;98346.22;;;-1.20;100.00
34297;BME280;20564;42.902;25.336;2023-12-28T02:43:08;98346.28;;;-1.24;100.00
34297;BME280;20564;42.902;25.336;2023-12-28T02:45:37;98339.50;;;-1.28;100.00
34297;BME280;20564;42.902;25.336;2023-12-28T02:48:05;98337.09;;;-1.35;100.00
34297;BME280;20564;42.902;25.336;2023-12-28T02:50:33;98333.72;;;-1.37;100.00
34297;BME280;20564;42.902;25.336;2023-12-28T02:53:01;98325.13;;;-1.38;100.00
34297;BME280;20564;42.902;25.336;2023-12-28T02:55:29;98331.84;;;-1.32;100.00
34297;BME280;20564;42.902;25.336;2023-12-28T02:57:57;98332.69;;;-1.32;100.00
34297;BME280;20564;42.902;25.336;2023-12-28T03:00:28;98329.25;;;-1.31;100.00
34297;BME280;20564;42.902;25.336;2023-12-28T03:02:56;98324.06;;;-1.31;100.00
34297;BME280;20564;42.902;25.336;2023-12-28T03:05:24;98319.31;;;-1.48;100.00
34297;BME280;20564;42.902;25.336;2023-12-28T03:07:51;98317.75;;;-1.53;100.00
34297;BME280;20564;42.902;25.336;2023-12-28T03:10:18;98323.78;;;-1.53;100.00
34297;BME280;20564;42.902;25.336;2023-12-28T03:12:45;98325.53;;;-1.55;100.00
34297;BME280;20564;42.902;25.336;2023-12-28T03:15:12;98320.38;;;-1.55;100.00
34297;BME280;20564;42.902;25.336;2023-12-28T03:17:40;98324.75;;;-1.58;100.00
34297;BME280;20564;42.902;25.336;2023-12-28T03:20:08;98314.34;;;-1.55;100.00
34297;BME280;20564;42.902;25.336;2023-12-28T03:22:36;98310.81;;;-1.51;100.00
34297;BME280;20564;42.902;25.336;2023-12-28T03:25:03;98309.16;;;-1.54;100.00
34297;BME280;20564;42.902;25.336;2023-12-28T03:27:33;98312.66;;;-1.56;100.00
34297;BME280;20564;42.902;25.336;2023-12-28T03:30:00;98305.78;;;-1.57;100.00
34297;BME280;20564;42.902;25.336;2023-12-28T03:32:33;98305.53;;;-1.47;100.00
34297;BME280;20564;42.902;25.336;2023-12-28T03:35:00;98307.25;;;-1.47;100.00
34297;BME280;20564;42.902;25.336;2023-12-28T03:37:28;98304.03;;;-1.55;100.00
34297;BME280;20564;42.902;25.336;2023-12-28T03:39:55;98311.06;;;-1.60;100.00
34297;BME280;20564;42.902;25.336;2023-12-28T03:42:22;98308.47;;;-1.60;100.00
34297;BME280;20564;42.902;25.336;2023-12-28T03:44:50;98317.78;;;-1.55;100.00
34297;BME280;20564;42.902;25.336;2023-12-28T03:47:17;98319.63;;;-1.60;100.00
34297;BME280;20564;42.902;25.336;2023-12-28T03:49:44;98318.69;;;-1.57;100.00
34297;BME280;20564;42.902;25.336;2023-12-28T03:52:11;98321.38;;;-1.60;100.00
34297;BME280;20564;42.902;25.336;2023-12-28T03:54:39;98326.69;;;-1.66;100.00
34297;BME280;20564;42.902;25.336;2023-12-28T03:57:07;98325.91;;;-1.70;100.00
34297;BME280;20564;42.902;25.336;2023-12-28T03:59:43;98330.22;;;-1.71;100.00
34297;BME280;20564;42.902;25.336;2023-12-28T04:02:10;98325.00;;;-1.67;100.00
34297;BME280;20564;42.902;25.336;2023-12-28T04:04:37;98321.66;;;-1.73;100.00
34297;BME280;20564;42.902;25.336;2023-12-28T04:07:05;98320.03;;;-1.77;100.00
34297;BME280;20564;42.902;25.336;2023-12-28T04:09:34;98320.03;;;-1.77;100.00
34297;BME280;20564;42.902;25.336;2023-12-28T04:12:01;98316.56;;;-1.76;100.00
34297;BME280;20564;42.902;25.336;2023-12-28T04:14:28;98318.38;;;-1.79;100.00
34297;BME280;20564;42.902;25.336;2023-12-28T04:16:56;98315.91;;;-1.84;100.00
34297;BME280;20564;42.902;25.336;2023-12-28T04:19:23;98313.19;;;-1.78;100.00
34297;BME280;20564;42.902;25.336;2023-12-28T04:21:50;98308.09;;;-1.81;100.00
34297;BME280;20564;42.902;25.336;2023-12-28T04:24:17;98315.03;;;-1.83;100.00
34297;BME280;20564;42.902;25.336;2023-12-28T04:26:44;98317.78;;;-1.90;100.00
34297;BME280;20564;42.902;25.336;2023-12-28T04:29:12;98324.59;;;-1.88;100.00
34297;BME280;20564;42.902;25.336;2023-12-28T04:31:42;98317.75;;;-1.89;100.00
34297;BME280;20564;42.902;25.336;2023-12-28T04:34:09;98323.81;;;-1.90;100.00
34297;BME280;20564;42.902;25.336;2023-12-28T04:36:42;98328.22;;;-1.95;100.00
34297;BME280;20564;42.902;25.336;2023-12-28T04:39:12;98332.47;;;-1.94;100.00
34297;BME280;20564;42.902;25.336;2023-12-28T04:41:40;98332.47;;;-1.94;100.00
34297;BME280;20564;42.902;25.336;2023-12-28T04:44:06;98333.25;;;-1.90;100.00
34297;BME280;20564;42.902;25.336;2023-12-28T04:46:38;98332.56;;;-1.97;100.00
34297;BME280;20564;42.902;25.336;2023-12-28T04:49:06;98341.22;;;-2.01;100.00
34297;BME280;20564;42.902;25.336;2023-12-28T04:51:33;98336.91;;;-1.99;100.00
34297;BME280;20564;42.902;25.336;2023-12-28T04:54:00;98343.75;;;-1.97;100.00
34297;BME280;20564;42.902;25.336;2023-12-28T04:56:27;98335.22;;;-2.02;100.00
34297;BME280;20564;42.902;25.336;2023-12-28T04:58:54;98337.78;;;-2.00;100.00
34297;BME280;20564;42.902;25.336;2023-12-28T05:01:21;98336.00;;;-1.98;100.00
34297;BME280;20564;42.902;25.336;2023-12-28T05:03:49;98336.19;;;-2.06;100.00
34297;BME280;20564;42.902;25.336;2023-12-28T05:06:16;98325.84;;;-2.04;100.00
34297;BME280;20564;42.902;25.336;2023-12-28T05:08:43;98334.44;;;-2.05;100.00
34297;BME280;20564;42.902;25.336;2023-12-28T05:11:10;98336.19;;;-2.06;100.00
34297;BME280;20564;42.902;25.336;2023-12-28T05:13:37;98334.38;;;-2.02;100.00
34297;BME280;20564;42.902;25.336;2023-12-28T05:16:04;98333.53;;;-2.03;100.00
34297;BME280;20564;42.902;25.336;2023-12-28T05:18:32;98321.38;;;-1.98;100.00
34297;BME280;20564;42.902;25.336;2023-12-28T05:20:59;98328.44;;;-2.06;100.00
34297;BME280;20564;42.902;25.336;2023-12-28T05:23:26;98330.34;;;-2.14;100.00
34297;BME280;20564;42.902;25.336;2023-12-28T05:25:53;98332.03;;;-2.13;100.00
34297;BME280;20564;42.902;25.336;2023-12-28T05:28:20;98333.72;;;-2.10;100.00
34297;BME280;20564;42.902;25.336;2023-12-28T05:30:47;98328.75;;;-2.20;100.00
34297;BME280;20564;42.902;25.336;2023-12-28T05:33:14;98327.91;;;-2.20;100.00
34297;BME280;20564;42.902;25.336;2023-12-28T05:35:42;98330.47;;;-2.20;100.00
34297;BME280;20564;42.902;25.336;2023-12-28T05:38:09;98323.59;;;-2.20;100.00
34297;BME280;20564;42.902;25.336;2023-12-28T05:40:36;98317.63;;;-2.22;100.00
34297;BME280;20564;42.902;25.336;2023-12-28T05:43:03;98321.16;;;-2.26;100.00
34297;BME280;20564;42.902;25.336;2023-12-28T05:45:30;98323.69;;;-2.24;100.00
34297;BME280;20564;42.902;25.336;2023-12-28T05:47:58;98311.81;;;-2.30;100.00
34297;BME280;20564;42.902;25.336;2023-12-28T05:50:25;98310.97;;;-2.32;100.00
34297;BME280;20564;42.902;25.336;2023-12-28T05:52:52;98314.34;;;-2.28;100.00
34297;BME280;20564;42.902;25.336;2023-12-28T05:55:19;98311.72;;;-2.27;100.00
34297;BME280;20564;42.902;25.336;2023-12-28T05:57:45;98310.88;;;-2.27;100.00
34297;BME280;20564;42.902;25.336;2023-12-28T06:00:14;98313.38;;;-2.23;100.00
34297;BME280;20564;42.902;25.336;2023-12-28T06:02:41;98319.38;;;-2.24;100.00
34297;BME280;20564;42.902;25.336;2023-12-28T06:05:08;98314.16;;;-2.21;100.00
34297;BME280;20564;42.902;25.336;2023-12-28T06:07:35;98322.66;;;-2.15;100.00
34297;BME280;20564;42.902;25.336;2023-12-28T06:10:02;98305.41;;;-2.13;100.00
34297;BME280;20564;42.902;25.336;2023-12-28T06:12:29;98321.66;;;-2.08;100.00
34297;BME280;20564;42.902;25.336;2023-12-28T06:14:56;98318.25;;;-2.10;100.00
34297;BME280;20564;42.902;25.336;2023-12-28T06:17:23;98322.56;;;-2.12;100.00
34297;BME280;20564;42.902;25.336;2023-12-28T06:19:50;98319.13;;;-2.11;100.00
34297;BME280;20564;42.902;25.336;2023-12-28T06:22:17;98320.75;;;-2.07;100.00
34297;BME280;20564;42.902;25.336;2023-12-28T06:24:44;98320.00;;;-2.12;100.00
34297;BME280;20564;42.902;25.336;2023-12-28T06:27:12;98319.13;;;-2.11;100.00
34297;BME280;20564;42.902;25.336;2023-12-28T06:29:39;98322.50;;;-2.09;100.00
34297;BME280;20564;42.902;25.336;2023-12-28T06:32:09;98318.13;;;-2.04;100.00
34297;BME280;20564;42.902;25.336;2023-12-28T06:34:36;98323.28;;;-2.06;100.00
34297;BME280;20564;42.902;25.336;2023-12-28T06:37:03;98325.16;;;-2.12;100.00
34297;BME280;20564;42.902;25.336;2023-12-28T06:39:30;98330.31;;;-2.12;100.00
34297;BME280;20564;42.902;25.336;2023-12-28T06:41:57;98327.72;;;-2.11;100.00
34297;BME280;20564;42.902;25.336;2023-12-28T06:44:24;98312.25;;;-2.12;100.00
34297;BME280;20564;42.902;25.336;2023-12-28T06:46:51;98325.09;;;-2.09;100.00
34297;BME280;20564;42.902;25.336;2023-12-28T06:49:19;98325.81;;;-2.03;100.00
34297;BME280;20564;42.902;25.336;2023-12-28T06:51:54;98324.06;;;-2.02;100.00
34297;BME280;20564;42.902;25.336;2023-12-28T06:54:22;98324.78;;;-1.96;100.00
34297;BME280;20564;42.902;25.336;2023-12-28T06:56:49;98317.88;;;-1.93;100.00
34297;BME280;20564;42.902;25.336;2023-12-28T06:59:18;98319.44;;;-1.88;100.00
34297;BME280;20564;42.902;25.336;2023-12-28T07:01:45;98332.22;;;-1.83;100.00
34297;BME280;20564;42.902;25.336;2023-12-28T07:04:12;98320.19;;;-1.83;100.00
34297;BME280;20564;42.902;25.336;2023-12-28T07:06:39;98322.53;;;-1.74;100.00
34297;BME280;20564;42.902;25.336;2023-12-28T07:09:06;98312.03;;;-1.66;100.00
34297;BME280;20564;42.902;25.336;2023-12-28T07:11:33;98316.22;;;-1.60;100.00
34297;BME280;20564;42.902;25.336;2023-12-28T07:14:00;98302.28;;;-1.53;100.00
34297;BME280;20564;42.902;25.336;2023-12-28T07:16:27;98307.25;;;-1.47;100.00
34297;BME280;20564;42.902;25.336;2023-12-28T07:18:54;98304.53;;;-1.41;100.00
34297;BME280;20564;42.902;25.336;2023-12-28T07:21:22;98315.44;;;-1.30;100.00
34297;BME280;20564;42.902;25.336;2023-12-28T07:23:49;98302.94;;;-1.12;100.00
34297;BME280;20564;42.902;25.336;2023-12-28T07:26:16;98298.34;;;-1.03;100.00
34297;BME280;20564;42.902;25.336;2023-12-28T07:28:43;98299.00;;;-0.94;100.00
34297;BME280;20564;42.902;25.336;2023-12-28T07:31:25;98298.78;;;-0.87;100.00
34297;BME280;20564;42.902;25.336;2023-12-28T07:33:53;98296.84;;;-0.79;100.00
34297;BME280;20564;42.902;25.336;2023-12-28T07:36:21;98294.88;;;-0.70;100.00
34297;BME280;20564;42.902;25.336;2023-12-28T07:38:48;98302.19;;;-0.55;100.00
34297;BME280;20564;42.902;25.336;2023-12-28T07:41:14;98293.38;;;-0.48;100.00
34297;BME280;20564;42.902;25.336;2023-12-28T07:43:42;98290.44;;;-0.36;100.00
34297;BME280;20564;42.902;25.336;2023-12-28T07:46:09;98284.88;;;-0.23;100.00
34297;BME280;20564;42.902;25.336;2023-12-28T07:48:35;98289.78;;;-0.14;100.00
34297;BME280;20564;42.902;25.336;2023-12-28T07:51:06;98289.41;;;-0.02;100.00
34297;BME280;20564;42.902;25.336;2023-12-28T07:53:33;98292.41;;;0.12;100.00
34297;BME280;20564;42.902;25.336;2023-12-28T07:56:00;98281.66;;;0.24;100.00
34297;BME280;20564;42.902;25.336;2023-12-28T07:58:29;98287.19;;;0.40;100.00
34297;BME280;20564;42.902;25.336;2023-12-28T08:00:56;98284.22;;;0.51;100.00
34297;BME280;20564;42.902;25.336;2023-12-28T08:03:23;98282.81;;;0.67;100.00
34297;BME280;20564;42.902;25.336;2023-12-28T08:05:50;98277.16;;;0.81;100.00
34297;BME280;20564;42.902;25.336;2023-12-28T08:08:17;98276.56;;;0.98;100.00
34297;BME280;20564;42.902;25.336;2023-12-28T08:10:44;98282.09;;;1.12;100.00
34297;BME280;20564;42.902;25.336;2023-12-28T08:13:11;98283.06;;;1.33;100.00
34297;BME280;20564;42.902;25.336;2023-12-28T08:15:38;98287.75;;;1.47;100.00
34297;BME280;20564;42.902;25.336;2023-12-28T08:18:06;98280.13;;;1.66;100.00
34297;BME280;20564;42.902;25.336;2023-12-28T08:20:33;98277.00;;;1.80;100.00
34297;BME280;20564;42.902;25.336;2023-12-28T08:23:00;98279.00;;;1.95;100.00
34297;BME280;20564;42.902;25.336;2023-12-28T08:25:44;98274.66;;;2.17;100.00
34297;BME280;20564;42.902;25.336;2023-12-28T08:28:11;98269.75;;;2.32;100.00
34297;BME280;20564;42.902;25.336;2023-12-28T08:30:38;98268.06;;;2.51;100.00
34297;BME280;20564;42.902;25.336;2023-12-28T08:33:08;98262.31;;;2.65;100.00
34297;BME280;20564;42.902;25.336;2023-12-28T08:35:35;98266.47;;;2.89;100.00
34297;BME280;20564;42.902;25.336;2023-12-28T08:38:02;98258.97;;;3.02;100.00
34297;BME280;20564;42.902;25.336;2023-12-28T08:40:30;98259.00;;;3.21;100.00
34297;BME280;20564;42.902;25.336;2023-12-28T08:42:57;98259.16;;;3.37;100.00
34297;BME280;20564;42.902;25.336;2023-12-28T08:45:24;98248.63;;;3.59;100.00
34297;BME280;20564;42.902;25.336;2023-12-28T08:47:51;98247.75;;;3.77;100.00
34297;BME280;20564;42.902;25.336;2023-12-28T08:50:18;98248.47;;;3.98;100.00
34297;BME280;20564;42.902;25.336;2023-12-28T08:52:45;98240.59;;;4.36;100.00
34297;BME280;20564;42.902;25.336;2023-12-28T08:55:12;98235.97;;;4.76;100.00
34297;BME280;20564;42.902;25.336;2023-12-28T08:57:39;98226.56;;;5.06;100.00
34297;BME280;20564;42.902;25.336;2023-12-28T09:00:10;98223.25;;;5.36;100.00
34297;BME280;20564;42.902;25.336;2023-12-28T09:02:37;98225.38;;;5.61;100.00
34297;BME280;20564;42.902;25.336;2023-12-28T09:05:04;98215.00;;;5.91;100.00
34297;BME280;20564;42.902;25.336;2023-12-28T09:07:31;98220.22;;;6.23;100.00
34297;BME280;20564;42.902;25.336;2023-12-28T09:09:58;98225.38;;;6.55;100.00
34297;BME280;20564;42.902;25.336;2023-12-28T09:12:25;98212.75;;;6.75;100.00
34297;BME280;20564;42.902;25.336;2023-12-28T09:14:52;98201.09;;;6.81;100.00
34297;BME280;20564;42.902;25.336;2023-12-28T09:17:22;98197.19;;;6.88;100.00
34297;BME280;20564;42.902;25.336;2023-12-28T09:19:49;98199.25;;;6.97;95.64
34297;BME280;20564;42.902;25.336;2023-12-28T09:22:17;98188.22;;;7.07;93.57
34297;BME280;20564;42.902;25.336;2023-12-28T09:24:44;98191.75;;;7.20;93.86
34297;BME280;20564;42.902;25.336;2023-12-28T09:27:11;98190.25;;;7.30;93.14
34297;BME280;20564;42.902;25.336;2023-12-28T09:29:39;98192.88;;;7.30;95.07
34297;BME280;20564;42.902;25.336;2023-12-28T09:32:06;98176.19;;;7.45;100.00
34297;BME280;20564;42.902;25.336;2023-12-28T09:34:33;98182.72;;;7.53;93.68
34297;BME280;20564;42.902;25.336;2023-12-28T09:37:00;98173.16;;;7.66;90.74
34297;BME280;20564;42.902;25.336;2023-12-28T09:39:27;98167.53;;;7.72;85.78
34297;BME280;20564;42.902;25.336;2023-12-28T09:42:09;98164.88;;;7.86;81.31
34297;BME280;20564;42.902;25.336;2023-12-28T09:44:40;98163.97;;;8.00;76.39
34297;BME280;20564;42.902;25.336;2023-12-28T09:47:10;98151.09;;;8.10;76.49
34297;BME280;20564;42.902;25.336;2023-12-28T09:49:40;98146.72;;;8.23;76.26
34297;BME280;20564;42.902;25.336;2023-12-28T09:52:08;98142.31;;;8.36;76.65
34297;BME280;20564;42.902;25.336;2023-12-28T09:54:35;98155.59;;;8.48;74.72
34297;BME280;20564;42.902;25.336;2023-12-28T09:57:02;98147.13;;;8.57;69.19
34297;BME280;20564;42.902;25.336;2023-12-28T09:59:30;98136.50;;;8.71;68.11
34297;BME280;20564;42.902;25.336;2023-12-28T10:02:00;98127.28;;;8.78;67.13
34297;BME280;20564;42.902;25.336;2023-12-28T10:04:28;98131.47;;;8.93;61.03
34297;BME280;20564;42.902;25.336;2023-12-28T10:06:56;98128.91;;;9.05;62.85
34297;BME280;20564;42.902;25.336;2023-12-28T10:09:23;98125.22;;;9.20;63.50
34297;BME280;20564;42.902;25.336;2023-12-28T10:11:54;98113.72;;;9.34;63.26
34297;BME280;20564;42.902;25.336;2023-12-28T10:14:21;98116.28;;;9.47;64.94
34297;BME280;20564;42.902;25.336;2023-12-28T10:16:48;98103.34;;;9.56;64.76
34297;BME280;20564;42.902;25.336;2023-12-28T10:19:15;98100.78;;;9.68;65.34
34297;BME280;20564;42.902;25.336;2023-12-28T10:21:47;98093.44;;;9.84;65.32
34297;BME280;20564;42.902;25.336;2023-12-28T10:24:14;98089.06;;;9.96;65.66
34297;BME280;20564;42.902;25.336;2023-12-28T10:26:41;98074.28;;;10.06;62.21
34297;BME280;20564;42.902;25.336;2023-12-28T10:29:09;98069.03;;;10.17;62.11
34297;BME280;20564;42.902;25.336;2023-12-28T10:31:36;98069.09;;;10.28;60.52
34297;BME280;20564;42.902;25.336;2023-12-28T10:34:04;98050.69;;;10.40;60.27
34297;BME280;20564;42.902;25.336;2023-12-28T10:36:32;98053.44;;;10.49;61.67
34297;BME280;20564;42.902;25.336;2023-12-28T10:39:05;98038.50;;;10.61;63.12
34297;BME280;20564;42.902;25.336;2023-12-28T10:41:35;98034.44;;;10.68;60.02
34297;BME280;20564;42.902;25.336;2023-12-28T10:44:05;98024.59;;;10.81;58.02
34297;BME280;20564;42.902;25.336;2023-12-28T10:46:39;98016.44;;;10.96;59.62
34297;BME280;20564;42.902;25.336;2023-12-28T10:49:15;98021.00;;;11.05;60.85
34297;BME280;20564;42.902;25.336;2023-12-28T10:51:44;98010.28;;;11.18;59.27
34297;BME280;20564;42.902;25.336;2023-12-28T10:54:33;97999.63;;;11.30;57.59
34297;BME280;20564;42.902;25.336;2023-12-28T10:57:23;97992.00;;;11.48;57.74
34297;BME280;20564;42.902;25.336;2023-12-28T11:02:39;97987.53;;;11.81;55.74
34297;BME280;20564;42.902;25.336;2023-12-28T11:05:09;97979.06;;;11.98;55.26
34297;BME280;20564;42.902;25.336;2023-12-28T11:07:36;97972.19;;;12.07;54.67
34297;BME280;20564;42.902;25.336;2023-12-28T11:10:06;97972.53;;;12.23;55.36
34297;BME280;20564;42.902;25.336;2023-12-28T11:12:33;97970.94;;;12.42;53.73
34297;BME280;20564;42.902;25.336;2023-12-28T11:15:02;97969.88;;;12.54;52.76
34297;BME280;20564;42.902;25.336;2023-12-28T11:17:33;97958.00;;;12.69;51.54
34297;BME280;20564;42.902;25.336;2023-12-28T11:20:04;97959.13;;;12.76;52.52
34297;BME280;20564;42.902;25.336;2023-12-28T11:22:35;97949.56;;;12.95;53.41
34297;BME280;20564;42.902;25.336;2023-12-28T11:25:02;97952.78;;;13.08;52.25
34297;BME280;20564;42.902;25.336;2023-12-28T11:27:35;97947.78;;;13.15;52.23
34297;BME280;20564;42.902;25.336;2023-12-28T11:30:06;97946.84;;;13.25;50.28
34297;BME280;20564;42.902;25.336;2023-12-28T11:32:36;97939.50;;;13.39;49.87
34297;BME280;20564;42.902;25.336;2023-12-28T11:35:06;97928.06;;;13.48;48.17
34297;BME280;20564;42.902;25.336;2023-12-28T11:37:38;97912.75;;;13.61;45.56
34297;BME280;20564;42.902;25.336;2023-12-28T11:40:12;97914.41;;;13.72;46.17
34297;BME280;20564;42.902;25.336;2023-12-28T11:42:53;97910.47;;;13.86;43.11
34297;BME280;20564;42.902;25.336;2023-12-28T11:45:24;97910.44;;;13.95;51.00
34297;BME280;20564;42.902;25.336;2023-12-28T11:47:59;97911.53;;;13.93;52.98
34297;BME280;20564;42.902;25.336;2023-12-28T11:50:27;97899.28;;;14.02;48.08
34297;BME280;20564;42.902;25.336;2023-12-28T11:52:54;97898.84;;;14.06;45.12
34297;BME280;20564;42.902;25.336;2023-12-28T11:55:22;97894.06;;;14.19;48.19
34297;BME280;20564;42.902;25.336;2023-12-28T11:57:50;97889.16;;;14.24;47.71
34297;BME280;20564;42.902;25.336;2023-12-28T12:00:17;97896.09;;;14.26;45.74
34297;BME280;20564;42.902;25.336;2023-12-28T12:02:44;97895.53;;;14.32;50.73
34297;BME280;20564;42.902;25.336;2023-12-28T12:05:15;97897.50;;;14.30;51.42
34297;BME280;20564;42.902;25.336;2023-12-28T12:07:42;97887.19;;;14.27;50.61
34297;BME280;20564;42.902;25.336;2023-12-28T12:10:14;97887.50;;;14.23;49.11
34297;BME280;20564;42.902;25.336;2023-12-28T12:12:42;97877.72;;;14.24;51.50
34297;BME280;20564;42.902;25.336;2023-12-28T12:15:19;97884.75;;;14.15;51.68
34297;BME280;20564;42.902;25.336;2023-12-28T12:17:46;97886.84;;;14.12;53.36
34297;BME280;20564;42.902;25.336;2023-12-28T12:20:14;97881.56;;;14.02;53.14
34297;BME280;20564;42.902;25.336;2023-12-28T12:22:41;97885.88;;;14.03;52.06
34297;BME280;20564;42.902;25.336;2023-12-28T12:25:08;97875.28;;;14.03;52.53
34297;BME280;20564;42.902;25.336;2023-12-28T12:27:38;97881.19;;;13.97;48.47
34297;BME280;20564;42.902;25.336;2023-12-28T12:30:06;97879.03;;;14.10;49.05
34297;BME280;20564;42.902;25.336;2023-12-28T12:32:35;97875.25;;;14.22;46.77
34297;BME280;20564;42.902;25.336;2023-12-28T12:35:10;97874.78;;;14.27;48.51
34297;BME280;20564;42.902;25.336;2023-12-28T12:37:38;97886.06;;;14.29;49.13
34297;BME280;20564;42.902;25.336;2023-12-28T12:40:05;97885.84;;;14.22;49.52
34297;BME280;20564;42.902;25.336;2023-12-28T12:42:33;97887.19;;;14.27;47.11
34297;BME280;20564;42.902;25.336;2023-12-28T12:45:01;97883.00;;;14.34;45.98
34297;BME280;20564;42.902;25.336;2023-12-28T12:47:32;97886.03;;;14.39;46.79
34297;BME280;20564;42.902;25.336;2023-12-28T12:50:01;97878.78;;;14.41;46.05
34297;BME280;20564;42.902;25.336;2023-12-28T12:52:28;97887.59;;;14.32;47.90
34297;BME280;20564;42.902;25.336;2023-12-28T12:54:58;97884.56;;;14.27;49.04
34297;BME280;20564;42.902;25.336;2023-12-28T12:57:25;97884.97;;;14.22;49.84